Latest Weather Observations for Urandangi

IDQ60801

Issued at 3:32 pm EST Friday 24 November 2017 (issued every 30 minutes, with the page automatically refreshed every 10 minutes)

About weather observations | Map of weather stations | Latest weather observations for QLD | Other Formats
Station Details ID: 037058 Name: URANDANGI AERODROME Lat: -21.60 Lon: 138.37 Height: 178.6 m
Data from the previous 72 hours. | See also: Recent months at Urandangi
Date/Time
EST
Temp
°C
App
Temp
°C
Dew
Point
°C
Rel
Hum
%
Delta-T
°C
Wind Press
QNH
hPa
Press
MSL
hPa
Rain since
9am
mm
Dir  Spd
km/h
Gust
km/h
Spd
kts
Gust
kts
24/03:30pm 38.0 34.9 10.4 19 16.4 W 17 28 9 15 1007.1 1005.9 0.0
24/03:00pm 37.2 34.9 10.5 20 15.8 W 13 28 7 15 1007.3 1006.1 0.0
24/02:30pm 38.2 35.8 11.3 20 16.2 SW 15 26 8 14 1007.6 1006.4 0.0
24/02:00pm 37.3 35.2 11.3 21 15.6 SW 13 22 7 12 1007.9 1006.7 0.0
24/01:30pm 36.5 34.2 10.6 21 15.3 SSW 13 22 7 12 1008.5 1007.3 0.0
24/01:00pm 36.2 34.7 11.8 23 14.7 WSW 11 20 6 11 1008.9 1007.7 0.0
24/12:30pm 36.0 34.3 12.3 24 14.3 S 13 24 7 13 1009.4 1008.2 0.0
24/12:00pm 35.7 35.0 13.2 26 13.8 W 9 19 5 10 1009.8 1008.6 0.0
24/11:30am 34.6 35.1 15.0 31 12.3 NNW 6 13 3 7 1010.3 1009.1 0.0
24/11:00am 33.2 33.4 14.8 33 11.4 WSW 7 15 4 8 1010.7 1009.5 0.0
24/10:30am 32.4 32.8 15.4 36 10.6 WNW 7 11 4 6 1011.0 1009.8 0.0
24/10:00am 30.9 31.2 16.1 41 9.3 W 9 17 5 9 1011.2 1010.1 0.0
24/09:30am 29.8 30.3 16.6 45 8.3 W 9 13 5 7 1011.4 1010.3 0.0
24/09:00am 29.7 31.0 16.1 43 8.5 W 4 13 2 7 1011.6 1010.5 -
24/08:30am 28.1 29.2 15.7 46 7.7 WSW 4 7 2 4 1011.4 1010.3 -
24/08:00am 26.9 27.6 16.2 52 6.6 SSW 7 13 4 7 1011.2 1010.1 -
24/07:30am 25.8 25.9 16.4 56 5.8 SSE 11 19 6 10 1010.9 1009.7 -
24/07:00am 22.7 24.2 17.6 73 3.2 ESE 6 9 3 5 1010.5 1009.3 -
24/06:30am 23.0 25.1 17.2 70 3.6 N 2 4 1 2 1010.1 1008.9 -
24/06:00am 23.1 24.9 16.4 66 4.1 NNE 2 6 1 3 1009.5 1008.3 -
24/05:30am 23.8 24.5 17.1 66 4.2 N 9 19 5 10 1008.8 1007.6 -
24/05:00am 24.1 24.6 17.4 66 4.2 NNW 11 13 6 7 1008.3 1007.1 -
24/04:30am 23.7 25.1 17.4 68 3.9 W 6 9 3 5 1008.8 1007.6 -
24/04:00am 24.1 23.4 17.4 66 4.2 W 17 20 9 11 1008.5 1007.3 -
24/03:30am 24.5 22.8 17.2 63 4.6 WSW 22 33 12 18 1008.8 1007.6 -
24/03:00am 26.0 22.1 16.5 55 5.9 WSW 32 43 17 23 1008.5 1007.3 0.0
24/02:30am 27.3 23.7 15.3 48 7.4 WSW 28 44 15 24 1008.6 1007.4 -
24/02:26am 27.4 25.0 14.4 45 7.9 WSW 20 39 11 21 1008.8 1007.6 -
24/02:00am 25.3 25.4 14.4 50 6.5 SW 7 13 4 7 1007.7 1006.5 -
24/01:30am 25.7 25.9 13.2 46 7.4 S 4 6 2 3 1007.5 1006.3 -
24/01:00am 26.4 26.5 13.9 46 7.5 SW 6 9 3 5 1007.8 1006.6 -
24/12:30am 27.5 27.0 12.7 40 8.7 ENE 7 9 4 5 1007.9 1006.7 -
24/12:00am 27.7 26.8 12.5 39 8.9 ENE 9 13 5 7 1008.0 1006.8 -
 
Date/Time
EST
Temp
°C
App
Temp
°C
Dew
Point
°C
Rel
Hum
%
Delta-T
°C
Wind Press
QNH
hPa
Press
MSL
hPa
Rain since
9am
mm
Dir  Spd
km/h
Gust
km/h
Spd
kts
Gust
kts
23/11:30pm 28.5 27.2 12.4 37 9.5 ENE 11 15 6 8 1008.5 1007.3 -
23/11:00pm 29.2 26.2 12.6 36 9.8 ENE 20 26 11 14 1008.1 1006.9 -
23/10:30pm 29.0 26.0 12.4 36 9.8 E 20 30 11 16 1008.2 1007.0 -
23/10:00pm 29.3 27.4 11.8 34 10.2 ESE 13 20 7 11 1008.1 1006.9 -
23/09:30pm 29.5 24.9 12.4 35 10.1 SE 28 48 15 26 1007.9 1006.7 -
23/09:27pm 29.7 25.2 12.6 35 10.1 SE 28 48 15 26 1007.9 1006.7 -
23/09:11pm 30.9 28.1 13.2 34 10.6 SSW 20 54 11 29 1007.3 1006.1 -
23/09:09pm 30.6 29.0 13.8 35 10.2 SW 15 54 8 29 1007.2 1006.0 -
23/09:00pm 30.2 30.7 15.5 41 9.1 W 7 9 4 5 1006.7 1005.5 0.0
23/08:30pm 31.0 32.3 16.2 41 9.3 W 4 6 2 3 1006.0 1004.8 -
23/08:00pm 32.5 33.4 14.1 32 11.3 NW 2 4 1 2 1005.6 1004.4 -
23/07:30pm 33.0 33.4 13.6 31 11.8 SW 4 6 2 3 1005.2 1004.0 -
23/07:00pm 34.5 33.9 12.2 26 13.4 SSW 7 11 4 6 1004.8 1003.6 -
23/06:30pm 35.7 34.8 11.4 23 14.5 SSW 7 13 4 7 1004.7 1003.5 -
23/06:00pm 36.0 35.7 11.6 23 14.7 W 4 7 2 4 1004.6 1003.4 -
23/05:30pm 36.8 36.8 12.3 23 14.9 SSW 4 13 2 7 1004.5 1003.3 -
23/05:00pm 36.0 35.2 11.6 23 14.7 E 7 11 4 6 1004.7 1003.5 -
23/04:30pm 36.1 35.7 12.3 24 14.4 ESE 6 15 3 8 1005.0 1003.8 -
23/04:00pm 36.0 35.0 12.3 24 14.4 WSW 9 17 5 9 1005.3 1004.1 -
23/03:30pm 35.9 36.2 13.4 26 13.8 WSW 4 9 2 5 1005.5 1004.3 -
23/03:00pm 35.3 34.9 12.9 26 13.7 WNW 7 15 4 8 1006.0 1004.8 -
23/02:30pm 35.5 35.5 14.2 28 13.2 NNW 7 17 4 9 1006.6 1005.4 -
23/02:00pm 35.3 34.7 14.6 29 12.9 S 11 19 6 10 1006.9 1005.7 -
23/01:30pm 33.9 34.4 14.9 32 11.8 W 6 15 3 8 1007.3 1006.1 -
23/01:00pm 33.6 32.8 15.1 33 11.6 NNW 13 24 7 13 1007.8 1006.6 -
23/12:30pm 32.8 32.6 15.8 36 10.7 N 11 20 6 11 1008.3 1007.1 -
23/12:00pm 32.0 32.0 16.3 39 9.9 NNW 11 26 6 14 1008.7 1007.5 -
23/11:30am 31.7 32.0 17.9 43 8.9 N 13 19 7 10 1009.2 1008.0 -
23/09:30am 28.4 29.9 18.8 56 6.2 N 9 13 5 7 1009.8 1008.6 0.0
23/09:00am 27.4 29.7 19.5 62 5.2 NNE 6 13 3 7 1009.7 1008.5 7.4
23/08:30am 26.5 27.6 19.6 66 4.5 NNE 13 19 7 10 1009.3 1008.1 7.4
23/08:00am 25.5 26.6 19.6 70 3.8 N 13 19 7 10 1009.3 1008.1 7.4
23/07:30am 24.6 24.9 19.7 74 3.2 N 17 20 9 11 1008.9 1007.7 7.4
23/07:00am 23.3 25.0 20.1 82 2.1 N 11 15 6 8 1008.6 1007.4 7.4
23/06:30am 21.8 24.1 19.9 89 1.2 N 7 9 4 5 1008.4 1007.2 7.4
23/06:00am 21.3 23.1 19.6 90 1.1 N 9 11 5 6 1007.9 1006.7 7.4
23/05:30am 21.5 23.6 19.4 88 1.3 N 7 9 4 5 1008.0 1006.8 7.4
23/05:00am 22.0 23.4 19.5 86 1.6 N 11 13 6 7 1007.5 1006.3 7.4
23/04:30am 22.2 22.8 18.6 80 2.3 N 13 19 7 10 1007.4 1006.2 7.4
23/04:00am 22.8 23.5 18.8 78 2.6 N 13 20 7 11 1007.3 1006.1 7.4
23/03:30am 22.5 23.0 19.3 82 2.1 N 15 20 8 11 1007.1 1005.9 7.4
23/03:00am 22.5 24.1 19.9 85 1.7 NNE 11 13 6 7 1008.0 1006.8 7.4
23/02:30am 22.5 24.1 20.0 86 1.6 N 11 17 6 9 1008.1 1006.9 7.4
23/02:00am 22.8 25.8 20.1 85 1.8 N 4 6 2 3 1008.1 1006.9 7.4
23/01:30am 22.6 25.0 20.1 86 1.6 WSW 7 13 4 7 1008.6 1007.4 7.4
23/01:00am 22.4 25.8 20.9 91 1.0 SE 4 7 2 4 1008.0 1006.8 7.4
23/12:30am 22.2 24.7 20.3 89 1.2 ENE 7 7 4 4 1007.4 1006.2 7.4
23/12:00am 22.4 25.3 19.9 86 1.6 ENE 4 4 2 2 1007.2 1006.0 7.4
 
Date/Time
EST
Temp
°C
App
Temp
°C
Dew
Point
°C
Rel
Hum
%
Delta-T
°C
Wind Press
QNH
hPa
Press
MSL
hPa
Rain since
9am
mm
Dir  Spd
km/h
Gust
km/h
Spd
kts
Gust
kts
22/11:30pm 22.4 24.9 19.8 85 1.7 NE 6 7 3 4 1007.3 1006.1 7.4
22/11:00pm 22.7 25.2 19.9 84 1.8 NE 6 7 3 4 1007.4 1006.2 7.4
22/10:30pm 23.0 24.5 19.8 82 2.1 NE 11 17 6 9 1007.4 1006.2 7.4
22/10:00pm 22.7 25.1 19.7 83 1.9 NE 6 7 3 4 1006.8 1005.6 7.4
22/09:30pm 23.4 25.9 19.1 77 2.8 NW 4 6 2 3 1006.8 1005.6 7.4
22/09:00pm 23.0 24.3 19.2 79 2.4 WSW 11 17 6 9 1006.4 1005.2 7.4
22/08:30pm 23.2 25.2 19.2 78 2.6 WNW 7 9 4 5 1005.3 1004.1 7.4
22/08:00pm 23.2 23.8 18.7 76 2.9 NW 13 19 7 10 1005.1 1003.9 7.4
22/07:30pm 22.9 19.7 18.2 75 3.0 WNW 32 43 17 23 1005.4 1004.2 7.2
22/07:12pm 27.6 25.9 17.2 53 6.6 NW 22 44 12 24 1005.1 1003.9 6.6
22/07:00pm 28.4 30.6 19.3 57 6.0 NNW 6 11 3 6 1004.0 1002.8 6.6
22/06:30pm 28.8 29.6 17.3 49 7.3 ENE 9 13 5 7 1003.1 1001.9 6.6
22/06:00pm 28.6 29.2 17.8 52 6.9 E 11 15 6 8 1003.0 1001.8 6.6
22/05:30pm 28.1 28.7 18.5 56 6.2 E 13 19 7 10 1002.5 1001.3 6.6
22/05:00pm 26.3 26.8 20.8 71 3.7 ENE 19 26 10 14 1003.0 1001.8 6.6
22/04:30pm 25.3 23.6 19.9 72 3.5 SE 28 46 15 25 1003.2 1002.0 6.6
22/04:18pm 24.6 20.7 20.3 77 2.8 SSE 41 69 22 37 1004.0 1002.8 6.0
22/04:12pm 25.7 21.6 17.4 60 5.2 SSE 35 57 19 31 1003.9 1002.7 1.6
22/04:11pm 27.2 22.7 16.5 52 6.7 SSE 35 54 19 29 1003.8 1002.6 1.0
22/04:03pm 33.6 31.0 12.0 27 12.9 WNW 17 54 9 29 1003.1 1001.9 0.0
22/04:01pm 36.9 35.1 11.0 21 15.4 NNW 11 54 6 29 1002.8 1001.6 0.0
22/04:00pm 37.3 35.8 10.6 20 15.9 NNW 9 26 5 14 1002.7 1001.5 0.0
22/03:30pm 37.1 36.1 11.1 21 15.5 N 7 15 4 8 1002.6 1001.4 0.0
22/03:00pm 37.2 36.3 11.2 21 15.6 E 7 24 4 13 1003.2 1002.0 0.0
22/02:30pm 37.0 36.2 11.8 22 15.2 NE 7 13 4 7 1004.1 1002.9 0.0
22/02:00pm 37.9 37.5 12.5 22 15.6 ENE 6 13 3 7 1004.5 1003.3 0.0
22/01:30pm 37.3 36.8 12.7 23 15.0 S 7 19 4 10 1005.1 1003.9 0.0
22/01:00pm 37.1 36.0 13.2 24 14.7 NNW 11 22 6 12 1005.7 1004.5 0.0
22/12:30pm 35.3 35.3 13.5 27 13.4 N 6 15 3 8 1006.3 1005.1 0.0
22/12:00pm 35.8 35.3 13.9 27 13.6 NNE 9 15 5 8 1006.9 1005.7 0.0
22/11:30am 34.3 34.3 14.2 29 12.4 NNE 7 17 4 9 1007.5 1006.3 0.0
22/11:00am 33.7 33.9 14.7 32 11.8 NW 7 15 4 8 1008.1 1006.9 0.0
22/10:30am 32.4 32.7 14.5 33 11.0 NNW 6 11 3 6 1008.5 1007.3 0.0
22/10:00am 31.7 31.9 14.8 36 10.5 WNW 7 13 4 7 1008.8 1007.6 0.0
22/09:30am 30.5 31.1 15.4 40 9.4 ENE 6 9 3 5 1009.2 1008.0 0.0
22/09:00am 28.8 30.1 17.0 49 7.5 NW 6 7 3 4 1009.5 1008.3 2.4
22/08:30am 27.7 29.2 17.5 53 6.5 NW 6 11 3 6 1009.7 1008.5 2.4
22/08:00am 26.7 27.9 18.3 60 5.4 N 9 13 5 7 1009.4 1008.2 2.4
22/07:30am 25.7 26.8 18.9 66 4.4 NNW 11 17 6 9 1009.2 1008.0 2.4
22/07:00am 24.4 24.4 19.0 72 3.5 NNW 17 20 9 11 1008.9 1007.7 2.4
22/06:30am 23.5 25.1 18.2 72 3.3 NNW 7 11 4 6 1008.6 1007.4 2.4
22/06:00am 23.0 24.4 17.7 72 3.3 N 7 9 4 5 1008.0 1006.8 2.4
22/05:30am 23.3 24.2 17.5 70 3.6 N 9 11 5 6 1007.9 1006.7 2.4
22/05:00am 23.9 24.8 17.6 68 4.0 N 9 13 5 7 1007.8 1006.6 2.4
22/04:30am 24.3 24.6 17.8 67 4.1 N 13 19 7 10 1007.5 1006.3 2.4
22/04:00am 24.3 24.9 17.8 67 4.1 N 11 13 6 7 1007.7 1006.5 2.4
22/03:30am 23.6 24.6 17.8 70 3.6 NNE 9 9 5 5 1007.7 1006.5 2.4
22/03:00am 24.6 25.8 18.3 68 4.0 NNE 9 13 5 7 1008.0 1006.8 2.4
22/02:30am 24.9 26.3 17.9 65 4.4 NNE 7 9 4 5 1008.1 1006.9 2.4
22/02:00am 25.5 25.8 17.9 63 4.8 NE 13 17 7 9 1007.9 1006.7 2.4
22/01:30am 25.9 25.9 18.1 62 5.0 NE 15 20 8 11 1008.2 1007.0 2.4
22/01:00am 26.4 25.7 18.3 61 5.2 NE 19 30 10 16 1008.2 1007.0 2.4
22/12:30am 26.6 25.3 18.2 60 5.4 NE 22 30 12 16 1008.0 1006.8 2.4
22/12:00am 27.1 24.4 17.6 56 6.0 NE 28 39 15 21 1008.0 1006.8 2.4
 
Date/Time
EST
Temp
°C
App
Temp
°C
Dew
Point
°C
Rel
Hum
%
Delta-T
°C
Wind Press
QNH
hPa
Press
MSL
hPa
Rain since
9am
mm
Dir  Spd
km/h
Gust
km/h
Spd
kts
Gust
kts
21/11:30pm 27.6 24.8 17.2 53 6.6 NE 28 43 15 23 1007.8 1006.6 2.4
21/11:00pm 28.3 25.3 16.9 50 7.2 NE 28 39 15 21 1007.7 1006.5 2.4
21/10:41pm 28.6 25.6 16.8 48 7.4 ENE 28 48 15 26 1007.5 1006.3 2.4
21/10:30pm 28.9 25.1 16.8 48 7.6 NE 32 46 17 25 1007.4 1006.2 2.4
21/10:00pm 28.6 27.0 16.5 48 7.6 NE 20 30 11 16 1007.1 1005.9 2.4
21/09:30pm 27.7 27.1 16.6 50 6.9 ENE 15 28 8 15 1006.8 1005.6 2.4
21/09:00pm 28.6 28.8 16.8 48 7.4 NNE 11 13 6 7 1005.5 1004.3 2.4
21/08:30pm 30.1 29.8 15.4 41 9.1 NNW 11 13 6 7 1005.4 1004.2 2.4
21/08:00pm 30.7 31.1 16.3 42 9.1 N 9 13 5 7 1004.7 1003.5 2.4
21/07:30pm 31.3 29.9 16.5 41 9.4 N 19 26 10 14 1004.3 1003.1 2.4
21/07:00pm 31.8 29.3 16.1 38 9.9 NNW 24 37 13 20 1003.7 1002.5 2.4
21/06:30pm 32.1 28.6 16.4 39 9.9 NNW 30 41 16 22 1003.2 1002.0 2.4
21/06:17pm 32.4 29.8 15.8 36 10.4 N 24 44 13 24 1002.7 1001.5 2.4
21/06:00pm 37.1 35.2 10.4 20 15.8 SE 11 17 6 9 1002.4 1001.2 2.4
21/05:30pm 38.3 37.4 10.6 19 16.5 N 6 7 3 4 1002.2 1001.0 2.4
21/05:00pm 38.4 37.3 9.9 18 16.9 WNW 6 11 3 6 1002.3 1001.1 2.4
21/04:30pm 37.7 36.6 13.0 23 15.2 WNW 11 17 6 9 1002.4 1001.2 2.4
21/04:00pm 36.7 36.4 12.8 24 14.7 NW 6 7 3 4 1002.8 1001.6 2.2

Other Formats:

Comma delimited format used in spreadsheet applications
http://www.bom.gov.au/fwo/IDQ60801/IDQ60801.94344.axf

JavaScript Object Notation format (JSON) in row-major order
http://www.bom.gov.au/fwo/IDQ60801/IDQ60801.94344.json